Observations for BENSON RAF, United Kingdom (EGUB)

EGUB 140750Z 19004KT 9999 BKN040 16/14 Q1016 BLU NOSIG  
EGUB 140650Z 17003KT 9999 OVC035 15/13 Q1015 BLU NOSIG  
EGUB 140550Z 16004KT 9999 OVC040 14/13 Q1015 BLU NOSIG  
EGUB 140450Z AUTO 18003KT 9999 // OVC042/// 13/12 Q1015 
EGUB 140350Z AUTO 10002KT 9999 // BKN047/// 11/11 Q1014 
EGUB 140250Z AUTO 20001KT 9999 // NCD 12/11 Q1014   
EGUB 140150Z AUTO 28003KT 9999 // NCD 14/12 Q1014   
EGUB 140050Z AUTO 27004KT 9999 // FEW033/// 15/13 Q1013 
EGUB 132350Z 27004KT 9999 BKN032 17/15 Q1013 BLU NOSIG  
EGUB 132250Z 31002KT 9999 BKN033 16/15 Q1012 BLU NOSIG  
EGUB 132150Z 22002KT 9999 FEW036 16/14 Q1012 BLU NOSIG  
EGUB 132050Z 30003KT CAVOK 18/14 Q1011 BLU NOSIG
EGUB 131950Z 29004KT 9999 FEW028 SCT080 19/15 Q1010 BLU NOSIG   
EGUB 131850Z 30009KT 9999 FEW048 BKN080 20/15 Q1009 BLU NOSIG   
EGUB 131750Z 28008KT 9999 FEW044 SCT080 23/15 Q1008 BLU NOSIG   
EGUB 131650Z 28008KT 9999 SCT044 SCT080 24/13 Q1008 BLU NOSIG   
EGUB 131550Z 29009KT CAVOK 24/12 Q1008 BLU NOSIG
EGUB 131450Z 27009KT 9999 FEW030CB SCT060 24/12 Q1007 BLU NOSIG 
EGUB 131350Z 28010KT 9999 FEW040 SCT050 23/13 Q1007 BLU NOSIG   
EGUB 131250Z 28008KT 9999 BKN032 BKN080 22/13 Q1007 BLU NOSIG   
EGUB 131150Z 27008KT 9999 FEW020TCU BKN080 21/14 Q1007 BLU NOSIG
EGUB 131050Z 27005KT 9999 BKN024 21/15 Q1007 WHT BECMG SCT025 BLU   
EGUB 130950Z 29006KT 9999 SCT018 BKN060 19/15 Q1007 WHT BECMG SCT025 BLU
EGUB 130850Z 29005KT 9999 SCT008 BKN025 17/16 Q1006 GRN BECMG BKN015 WHT
EGUB 130825Z 28004KT 9999 FEW006 OVC008 17/15 Q1006 GRN BECMG BKN015 WHT
EGUB 130750Z 28007KT 9999 FEW006 OVC018 17/15 Q1006 WHT TEMPO BKN012 GRN